createdAt,value
2024-05-09T00:00:42.695Z,3.60
2024-05-09T00:03:11.006Z,4.60
2024-05-09T00:05:42.789Z,4.60
2024-05-09T00:08:10.510Z,4.80
2024-05-09T00:10:39.337Z,4.85
2024-05-09T00:13:07.756Z,4.53
2024-05-09T00:15:35.632Z,4.53
2024-05-09T00:18:04.265Z,4.90
2024-05-09T00:20:37.799Z,4.80
2024-05-09T00:23:08.745Z,4.05
2024-05-09T00:25:36.294Z,4.13
2024-05-09T00:28:03.388Z,4.50
2024-05-09T00:30:35.120Z,3.90
2024-05-09T00:33:06.259Z,4.40
2024-05-09T00:35:34.448Z,4.07
2024-05-09T00:38:01.434Z,4.18
2024-05-09T00:40:39.148Z,4.38
2024-05-09T00:43:08.533Z,4.47
2024-05-09T00:45:35.700Z,4.70
2024-05-09T00:48:06.124Z,4.70
2024-05-09T00:50:39.642Z,4.55
2024-05-09T00:53:10.201Z,4.28
2024-05-09T00:55:38.807Z,4.80
2024-05-09T00:58:07.615Z,4.88
2024-05-09T01:00:39.272Z,4.72
2024-05-09T01:03:12.865Z,4.55
2024-05-09T01:05:42.170Z,4.18
2024-05-09T01:08:10.483Z,4.32
2024-05-09T01:10:51.744Z,4.10
2024-05-09T01:13:18.611Z,4.53
2024-05-09T01:15:45.517Z,3.90
2024-05-09T01:18:13.679Z,3.88
2024-05-09T01:20:43.844Z,5.20
2024-05-09T01:23:14.406Z,5.28
2024-05-09T01:25:43.333Z,4.95
2024-05-09T01:28:10.371Z,4.72
2024-05-09T01:30:38.043Z,4.30
2024-05-09T01:33:08.289Z,4.57
2024-05-09T01:35:36.971Z,4.45
2024-05-09T01:38:04.123Z,5.03
2024-05-09T01:40:38.198Z,4.95
2024-05-09T01:43:07.679Z,5.53
2024-05-09T01:45:34.611Z,4.85
2024-05-09T01:48:02.263Z,5.90
2024-05-09T01:50:37.832Z,4.95
2024-05-09T01:53:13.082Z,4.40
2024-05-09T01:55:40.786Z,4.40
2024-05-09T01:58:08.683Z,4.40
2024-05-09T02:00:40.118Z,4.50
2024-05-09T02:03:16.214Z,4.53
2024-05-09T02:05:45.406Z,4.10
2024-05-09T02:08:17.741Z,4.57
2024-05-09T02:10:47.489Z,4.97
2024-05-09T02:13:15.717Z,4.70
2024-05-09T02:15:42.856Z,4.30
2024-05-09T02:18:10.291Z,5.03
2024-05-09T02:20:41.935Z,4.50
2024-05-09T02:23:09.771Z,4.63
2024-05-09T02:25:36.706Z,4.68
2024-05-09T02:28:03.571Z,4.32
2024-05-09T02:30:38.654Z,4.97
2024-05-09T02:33:09.935Z,4.57
2024-05-09T02:35:38.517Z,4.63
2024-05-09T02:38:05.560Z,4.65
2024-05-09T02:40:37.430Z,4.60
2024-05-09T02:43:07.896Z,4.40
2024-05-09T02:45:35.168Z,4.10
2024-05-09T02:48:02.590Z,4.18
2024-05-09T02:50:36.952Z,4.18
2024-05-09T02:53:07.334Z,4.40
2024-05-09T02:55:34.409Z,4.40
2024-05-09T02:58:01.163Z,4.40
2024-05-09T03:00:36.752Z,4.28
2024-05-09T03:03:08.996Z,4.20
2024-05-09T03:05:37.309Z,4.30
2024-05-09T03:08:04.640Z,4.43
2024-05-09T03:10:36.137Z,3.95
2024-05-09T03:13:09.234Z,4.40
2024-05-09T03:15:36.265Z,4.70
2024-05-09T03:18:03.776Z,4.32
2024-05-09T03:20:34.657Z,4.20
2024-05-09T03:23:03.496Z,4.43
2024-05-09T03:25:30.509Z,4.65
2024-05-09T03:27:57.237Z,4.15
2024-05-09T03:30:35.868Z,4.47
2024-05-09T03:33:15.395Z,4.68
2024-05-09T03:35:46.347Z,4.15
2024-05-09T03:38:13.426Z,4.90
2024-05-09T03:40:50.775Z,4.47
2024-05-09T03:43:19.179Z,4.97
2024-05-09T03:45:48.593Z,4.95
2024-05-09T03:48:15.686Z,4.63
2024-05-09T03:50:42.849Z,4.20
2024-05-09T03:53:11.201Z,4.70
2024-05-09T03:55:38.259Z,4.60
2024-05-09T03:58:05.406Z,4.75
2024-05-09T04:00:38.023Z,4.20
2024-05-09T04:03:09.041Z,4.82
2024-05-09T04:05:39.840Z,4.70
2024-05-09T04:08:07.744Z,5.35
2024-05-09T04:10:35.333Z,5.13
2024-05-09T04:13:03.689Z,5.10
2024-05-09T04:15:31.028Z,5.10
2024-05-09T04:17:58.111Z,4.75
2024-05-09T04:20:35.832Z,5.45
2024-05-09T04:23:07.491Z,5.18
2024-05-09T04:25:35.051Z,4.95
2024-05-09T04:28:01.881Z,5.70
2024-05-09T04:30:37.532Z,5.75
2024-05-09T04:33:09.478Z,5.85
2024-05-09T04:35:38.635Z,6.13
2024-05-09T04:38:05.975Z,6.00
2024-05-09T04:40:35.996Z,5.57
2024-05-09T04:43:13.784Z,5.60
2024-05-09T04:45:40.890Z,5.68
2024-05-09T04:48:08.390Z,5.93
2024-05-09T04:50:38.309Z,5.57
2024-05-09T04:53:08.394Z,4.85
2024-05-09T04:55:36.722Z,5.97
2024-05-09T04:58:03.666Z,5.40
2024-05-09T05:00:35.723Z,5.57
2024-05-09T05:03:10.581Z,5.10
2024-05-09T05:05:43.283Z,6.00
2024-05-09T05:08:12.307Z,6.10
2024-05-09T05:10:39.292Z,6.40
2024-05-09T05:13:24.954Z,6.25
2024-05-09T05:15:56.768Z,6.40
2024-05-09T05:18:25.727Z,6.38
2024-05-09T05:20:53.189Z,6.18
2024-05-09T05:23:20.902Z,6.30
2024-05-09T05:25:49.194Z,6.85
2024-05-09T05:28:16.838Z,6.93
2024-05-09T05:30:44.088Z,6.57
2024-05-09T05:33:12.667Z,7.65
2024-05-09T05:35:40.502Z,7.07
2024-05-09T05:38:08.316Z,8.73
2024-05-09T05:40:38.309Z,7.63
2024-05-09T05:43:10.454Z,8.10
2024-05-09T05:45:38.601Z,8.65
2024-05-09T05:48:07.337Z,8.52
2024-05-09T05:50:37.378Z,8.57
2024-05-09T05:53:07.631Z,7.38
2024-05-09T05:55:36.145Z,8.80
2024-05-09T05:58:03.385Z,8.30
2024-05-09T06:00:37.832Z,8.02
2024-05-09T06:03:07.573Z,9.65
2024-05-09T06:05:35.698Z,9.05
2024-05-09T06:08:02.567Z,9.30
2024-05-09T06:10:37.605Z,9.20
2024-05-09T06:13:07.262Z,9.48
2024-05-09T06:15:34.212Z,9.70
2024-05-09T06:18:01.643Z,9.15
2024-05-09T06:20:35.562Z,9.45
2024-05-09T06:23:08.127Z,9.25
2024-05-09T06:25:36.093Z,9.27
2024-05-09T06:28:03.504Z,9.73
2024-05-09T06:30:38.372Z,9.55
2024-05-09T06:33:10.789Z,9.45
2024-05-09T06:35:39.731Z,9.60
2024-05-09T06:38:09.236Z,9.15
2024-05-09T06:40:39.440Z,9.40
2024-05-09T06:43:16.383Z,10.43
2024-05-09T06:45:46.746Z,9.00
2024-05-09T06:48:13.679Z,7.95
2024-05-09T06:50:41.378Z,9.32
2024-05-09T06:53:09.188Z,9.38
2024-05-09T06:55:37.254Z,10.00
2024-05-09T06:58:06.171Z,9.63
2024-05-09T07:00:38.918Z,9.70
2024-05-09T07:03:13.642Z,9.38
2024-05-09T07:05:42.832Z,9.57
2024-05-09T07:08:09.968Z,8.38
2024-05-09T07:10:37.286Z,9.30
2024-05-09T07:13:11.773Z,10.50
2024-05-09T07:15:39.340Z,8.82
2024-05-09T07:18:13.862Z,9.60
2024-05-09T07:20:41.527Z,9.98
2024-05-09T07:23:09.955Z,10.38
2024-05-09T07:25:37.017Z,11.20
2024-05-09T07:28:03.986Z,11.70
2024-05-09T07:30:34.094Z,10.00
2024-05-09T07:33:02.843Z,10.68
2024-05-09T07:35:30.782Z,11.07
2024-05-09T07:37:57.953Z,12.15
2024-05-09T07:40:32.803Z,12.60
2024-05-09T07:43:07.596Z,11.98
2024-05-09T07:52:32.506Z,11.85
2024-05-09T07:53:39.623Z,12.65
2024-05-09T07:56:11.968Z,12.55
2024-05-09T07:58:39.435Z,12.70
2024-05-09T08:01:06.618Z,12.15
2024-05-09T08:03:33.735Z,12.10
2024-05-09T08:06:01.068Z,11.48
2024-05-09T08:08:27.875Z,12.52
2024-05-09T08:10:54.941Z,11.52
2024-05-09T08:13:21.834Z,11.23
2024-05-09T08:15:48.765Z,10.20
2024-05-09T08:18:15.802Z,9.95
2024-05-09T08:20:42.787Z,10.93
2024-05-09T08:23:11.274Z,10.23
2024-05-09T08:25:38.763Z,8.30
2024-05-09T08:28:05.943Z,7.90
2024-05-09T08:30:36.662Z,9.45
2024-05-09T08:33:06.302Z,11.05
2024-05-09T08:35:34.842Z,11.07
2024-05-09T08:38:03.386Z,11.13
2024-05-09T08:40:35.606Z,9.20
2024-05-09T08:43:08.232Z,8.43
2024-05-09T08:45:36.807Z,7.95
2024-05-09T08:48:07.877Z,8.70
2024-05-09T08:50:39.168Z,9.38
2024-05-09T08:53:08.185Z,8.82
2024-05-09T08:55:39.416Z,8.45
2024-05-09T08:58:13.886Z,9.32
2024-05-09T09:00:43.376Z,9.15
2024-05-09T09:03:21.867Z,7.15
2024-05-09T09:06:01.864Z,7.65
2024-05-09T09:08:28.641Z,7.88
2024-05-09T09:10:58.314Z,7.95
2024-05-09T09:13:28.544Z,7.32
2024-05-09T09:15:58.715Z,7.22
2024-05-09T09:18:27.164Z,7.00
2024-05-09T09:20:54.564Z,7.15
2024-05-09T09:23:21.690Z,7.25
2024-05-09T09:25:48.459Z,7.00
2024-05-09T09:28:15.626Z,6.90
2024-05-09T09:30:43.325Z,7.68
2024-05-09T09:33:10.867Z,7.00
2024-05-09T09:35:39.990Z,7.18
2024-05-09T09:38:08.269Z,7.20
2024-05-09T09:40:40.774Z,7.65
2024-05-09T09:43:14.965Z,7.80
2024-05-09T09:45:44.065Z,7.28
2024-05-09T09:48:14.648Z,6.40
2024-05-09T09:50:42.602Z,7.05
2024-05-09T09:53:10.409Z,6.53
2024-05-09T09:55:39.662Z,6.82
2024-05-09T09:58:09.702Z,8.23
2024-05-09T10:00:39.130Z,9.15
2024-05-09T10:03:06.797Z,7.22
2024-05-09T10:05:34.455Z,7.88
2024-05-09T10:08:06.757Z,6.57
2024-05-09T10:10:35.289Z,7.35
2024-05-09T10:13:06.494Z,6.97
2024-05-09T10:15:48.155Z,8.23
2024-05-09T10:18:15.619Z,7.28
2024-05-09T10:20:46.448Z,6.28
2024-05-09T10:23:29.839Z,8.15
2024-05-09T10:26:01.440Z,8.48
2024-05-09T10:28:33.470Z,7.72
2024-05-09T10:31:07.094Z,7.93
2024-05-09T10:33:37.891Z,8.15
2024-05-09T10:36:20.645Z,8.77
2024-05-09T10:38:49.496Z,8.15
2024-05-09T10:41:20.392Z,8.75
2024-05-09T10:43:47.912Z,8.73
2024-05-09T10:46:21.221Z,8.93
2024-05-09T10:48:48.894Z,7.80
2024-05-09T10:51:19.536Z,7.97
2024-05-09T10:53:50.258Z,8.00
2024-05-09T10:56:17.823Z,8.02
2024-05-09T10:58:44.706Z,8.18
2024-05-09T11:01:13.297Z,7.97
2024-05-09T11:03:40.578Z,8.50
2024-05-09T11:06:09.677Z,8.85
2024-05-09T11:08:37.257Z,8.30
2024-05-09T11:11:07.434Z,9.25
2024-05-09T11:13:40.928Z,8.68
2024-05-09T11:16:22.057Z,8.65
2024-05-09T11:18:57.103Z,7.80
2024-05-09T11:21:24.756Z,7.50
2024-05-09T11:23:52.156Z,7.13
2024-05-09T11:26:21.437Z,8.07
2024-05-09T11:28:48.695Z,7.80
2024-05-09T11:31:15.495Z,9.18
2024-05-09T11:33:45.468Z,7.60
2024-05-09T11:36:12.423Z,9.77
2024-05-09T11:38:39.346Z,8.98
2024-05-09T11:41:06.326Z,8.25
2024-05-09T11:43:33.675Z,9.38
2024-05-09T11:46:02.633Z,9.18
2024-05-09T11:48:30.019Z,8.25
2024-05-09T11:50:57.135Z,7.32
2024-05-09T11:53:24.001Z,7.47
2024-05-09T11:55:50.841Z,8.98
2024-05-09T11:58:19.142Z,10.02
2024-05-09T12:00:49.167Z,9.10
2024-05-09T12:03:16.214Z,9.07
2024-05-09T12:05:43.337Z,8.57
2024-05-09T12:08:10.304Z,8.18
2024-05-09T12:10:37.564Z,8.18
2024-05-09T12:13:06.712Z,7.28
2024-05-09T12:15:37.579Z,6.50
2024-05-09T12:18:05.934Z,6.45
2024-05-09T12:20:37.387Z,7.25
2024-05-09T12:23:07.540Z,6.95
2024-05-09T12:25:35.807Z,5.13
2024-05-09T12:28:02.691Z,5.28
2024-05-09T12:30:36.362Z,5.40
2024-05-09T12:33:08.715Z,5.75
2024-05-09T12:35:35.950Z,4.68
2024-05-09T12:38:02.975Z,5.20
2024-05-09T12:40:35.852Z,5.13
2024-05-09T12:43:09.883Z,5.50
2024-05-09T12:45:38.016Z,5.05
2024-05-09T12:48:08.265Z,3.60
2024-05-09T12:50:35.813Z,4.03
2024-05-09T12:53:04.164Z,4.40
2024-05-09T12:55:40.380Z,3.70
2024-05-09T12:58:18.318Z,4.05
2024-05-09T13:00:46.227Z,4.22
2024-05-09T13:03:13.557Z,4.20
2024-05-09T13:05:45.136Z,4.72
2024-05-09T13:08:12.966Z,4.65
2024-05-09T13:10:39.949Z,4.68
2024-05-09T13:13:06.946Z,3.85
2024-05-09T13:15:37.483Z,4.03
2024-05-09T13:18:05.407Z,4.55
2024-05-09T13:20:35.025Z,5.18
2024-05-09T13:23:08.062Z,4.43
2024-05-09T13:25:38.430Z,4.65
2024-05-09T13:28:06.356Z,5.60
2024-05-09T13:30:39.824Z,6.68
2024-05-09T13:33:11.229Z,7.30
2024-05-09T13:35:39.817Z,6.93
2024-05-09T13:38:07.562Z,6.72
2024-05-09T13:40:36.191Z,6.65
2024-05-09T13:43:04.929Z,6.72
2024-05-09T13:45:32.510Z,6.78
2024-05-09T13:47:59.792Z,6.93
2024-05-09T13:50:34.067Z,7.35
2024-05-09T13:53:04.852Z,6.82
2024-05-09T13:55:32.393Z,6.55
2024-05-09T13:57:59.216Z,7.10
2024-05-09T14:00:38.169Z,7.18
2024-05-09T14:03:11.804Z,6.97
2024-05-09T14:05:38.902Z,6.72
2024-05-09T14:08:06.078Z,8.38
2024-05-09T14:10:33.094Z,6.93
2024-05-09T14:13:01.044Z,6.88
2024-05-09T14:15:28.162Z,6.25
2024-05-09T14:17:55.390Z,7.00
2024-05-09T14:20:30.443Z,5.97
2024-05-09T14:22:59.615Z,6.80
2024-05-09T14:25:31.619Z,7.15
2024-05-09T14:27:58.732Z,6.45
2024-05-09T14:30:34.292Z,6.38
2024-05-09T14:33:05.243Z,7.45
2024-05-09T14:35:32.520Z,6.93
2024-05-09T14:37:59.395Z,7.07
2024-05-09T14:40:36.652Z,8.25
2024-05-09T14:43:08.728Z,6.85
2024-05-09T14:45:35.915Z,6.78
2024-05-09T14:48:03.747Z,7.57
2024-05-09T14:50:36.224Z,8.20
2024-05-09T14:53:07.200Z,7.90
2024-05-09T14:55:37.342Z,8.00
2024-05-09T14:58:08.336Z,9.50
2024-05-09T15:00:42.260Z,9.02
2024-05-09T15:03:11.959Z,9.20
2024-05-09T15:05:39.104Z,10.77
2024-05-09T15:08:07.175Z,10.02
2024-05-09T15:10:36.257Z,11.02
2024-05-09T15:13:04.382Z,10.00
2024-05-09T15:15:31.518Z,9.80
2024-05-09T15:17:58.864Z,10.70
2024-05-09T15:20:33.106Z,9.77
2024-05-09T15:23:02.893Z,10.93
2024-05-09T15:25:29.901Z,10.07
2024-05-09T15:27:57.042Z,10.05
2024-05-09T15:32:53.665Z,9.85
2024-05-09T15:35:20.489Z,10.48
2024-05-09T15:37:48.469Z,10.23
2024-05-09T15:40:22.465Z,9.98
2024-05-09T15:42:58.098Z,8.45
2024-05-09T15:45:24.937Z,9.40
2024-05-09T15:47:51.807Z,9.98
2024-05-09T15:50:28.264Z,10.55
2024-05-09T15:53:02.733Z,9.73
2024-05-09T15:55:33.535Z,8.90
2024-05-09T15:58:01.763Z,10.10
2024-05-09T16:00:36.777Z,8.85
2024-05-09T16:03:07.539Z,9.80
2024-05-09T16:05:34.712Z,9.40
2024-05-09T16:08:01.813Z,9.50
2024-05-09T16:10:32.719Z,9.82
2024-05-09T16:13:01.567Z,8.70
2024-05-09T16:15:28.713Z,8.73
2024-05-09T16:17:56.379Z,9.65
2024-05-09T16:22:53.259Z,9.43
2024-05-09T16:25:20.107Z,9.52
2024-05-09T16:27:47.406Z,8.75
2024-05-09T16:30:21.329Z,8.75
2024-05-09T16:32:55.166Z,7.35
2024-05-09T16:35:22.094Z,7.00
2024-05-09T16:37:49.361Z,7.43
2024-05-09T16:40:25.246Z,6.65
2024-05-09T16:43:03.283Z,7.40
2024-05-09T16:45:30.349Z,7.80
2024-05-09T16:47:57.322Z,8.65
2024-05-09T16:50:29.442Z,10.30
2024-05-09T16:52:59.834Z,9.07
2024-05-09T16:55:26.846Z,9.20
2024-05-09T16:57:54.008Z,7.88
2024-05-09T17:00:31.125Z,7.85
2024-05-09T17:03:06.784Z,8.25
2024-05-09T17:05:34.623Z,8.40
2024-05-09T17:08:01.736Z,8.27
2024-05-09T17:10:33.012Z,7.18
2024-05-09T17:13:02.458Z,7.72
2024-05-09T17:15:29.902Z,8.48
2024-05-09T17:17:56.922Z,8.48
2024-05-09T17:20:31.650Z,9.98
2024-05-09T17:23:02.619Z,7.22
2024-05-09T17:25:29.558Z,8.38
2024-05-09T17:27:57.076Z,6.75
2024-05-09T17:30:32.158Z,8.15
2024-05-09T17:33:03.835Z,8.10
2024-05-09T17:35:31.755Z,8.07
2024-05-09T17:37:59.659Z,8.43
2024-05-09T17:40:32.799Z,7.50
2024-05-09T17:43:03.214Z,7.60
2024-05-09T17:45:30.578Z,7.78
2024-05-09T17:47:58.037Z,7.35
2024-05-09T17:50:31.713Z,7.32
2024-05-09T17:53:02.898Z,8.07
2024-05-09T17:55:30.142Z,7.95
2024-05-09T17:57:57.346Z,7.80
2024-05-09T18:00:33.716Z,7.55
2024-05-09T18:03:06.363Z,8.13
2024-05-09T18:05:38.046Z,7.82
2024-05-09T18:08:06.365Z,9.00
2024-05-09T18:10:37.410Z,8.02
2024-05-09T18:13:08.028Z,7.97
2024-05-09T18:15:35.198Z,7.72
2024-05-09T18:18:03.317Z,8.30
2024-05-09T18:20:39.376Z,8.77
2024-05-09T18:23:10.972Z,8.60
2024-05-09T18:25:37.848Z,9.32
2024-05-09T18:28:05.231Z,8.57
2024-05-09T18:30:35.365Z,8.50
2024-05-09T18:33:06.412Z,7.68
2024-05-09T18:35:34.750Z,8.73
2024-05-09T18:38:01.683Z,7.45
2024-05-09T18:40:34.124Z,8.18
2024-05-09T18:43:07.187Z,7.30
2024-05-09T18:45:36.679Z,8.05
2024-05-09T18:48:05.132Z,7.80
2024-05-09T18:50:37.093Z,7.13
2024-05-09T18:53:06.619Z,7.07
2024-05-09T18:55:33.554Z,7.50
2024-05-09T18:58:00.504Z,6.75
2024-05-09T19:00:34.348Z,6.82
2024-05-09T19:03:06.204Z,6.80
2024-05-09T19:05:35.899Z,7.03
2024-05-09T19:08:03.513Z,7.10
2024-05-09T19:10:34.427Z,7.03
2024-05-09T19:13:06.689Z,6.93
2024-05-09T19:15:37.992Z,6.35
2024-05-09T19:18:05.346Z,6.25
2024-05-09T19:20:34.927Z,6.47
2024-05-09T19:23:03.476Z,6.43
2024-05-09T19:25:30.653Z,6.15
2024-05-09T19:27:57.731Z,5.75
2024-05-09T19:30:33.750Z,6.60
2024-05-09T19:33:06.327Z,6.35
2024-05-09T19:35:33.290Z,5.80
2024-05-09T19:38:00.228Z,5.35
2024-05-09T19:40:31.631Z,5.93
2024-05-09T19:43:01.693Z,5.18
2024-05-09T19:45:29.172Z,5.50
2024-05-09T19:47:56.525Z,5.25
2024-05-09T19:50:32.724Z,5.57
2024-05-09T19:53:08.151Z,5.80
2024-05-09T19:55:35.181Z,6.88
2024-05-09T19:58:05.164Z,6.57
2024-05-09T20:00:40.073Z,7.82
2024-05-09T20:03:10.008Z,6.32
2024-05-09T20:05:37.867Z,5.82
2024-05-09T20:08:05.733Z,5.60
2024-05-09T20:10:35.086Z,6.70
2024-05-09T20:13:07.119Z,5.75
2024-05-09T20:15:36.208Z,6.20
2024-05-09T20:18:03.780Z,6.15
2024-05-09T20:20:37.649Z,6.93
2024-05-09T20:23:08.619Z,5.65
2024-05-09T20:25:35.485Z,6.85
2024-05-09T20:28:02.463Z,6.55
2024-05-09T20:30:32.693Z,7.18
2024-05-09T20:33:02.728Z,7.00
2024-05-09T20:35:32.275Z,7.22
2024-05-09T20:37:59.536Z,6.93
2024-05-09T20:40:32.662Z,6.75
2024-05-09T20:43:03.237Z,6.95
2024-05-09T20:45:30.091Z,6.03
2024-05-09T20:47:57.318Z,6.30
2024-05-09T20:50:35.348Z,6.50
2024-05-09T20:53:08.335Z,6.85
2024-05-09T20:55:35.157Z,6.38
2024-05-09T20:58:01.964Z,6.38
2024-05-09T21:00:35.502Z,6.90
2024-05-09T21:03:07.412Z,5.90
2024-05-09T21:05:35.322Z,6.97
2024-05-09T21:08:02.774Z,7.47
2024-05-09T21:10:32.419Z,7.47
2024-05-09T21:13:00.728Z,7.65
2024-05-09T21:15:27.535Z,8.60
2024-05-09T21:17:54.380Z,7.15
2024-05-09T21:20:28.256Z,8.38
2024-05-09T21:22:58.031Z,8.23
2024-05-09T21:25:24.860Z,8.60
2024-05-09T21:27:51.750Z,8.18
2024-05-09T21:30:27.867Z,7.53
2024-05-09T21:33:04.625Z,8.13
2024-05-09T21:35:31.467Z,8.30
2024-05-09T21:37:58.305Z,8.52
2024-05-09T21:40:31.617Z,8.45
2024-05-09T21:43:01.796Z,7.38
2024-05-09T21:45:28.567Z,7.25
2024-05-09T21:47:55.551Z,6.70
2024-05-09T21:50:28.413Z,7.88
2024-05-09T21:53:02.822Z,8.02
2024-05-09T21:55:30.037Z,8.40
2024-05-09T21:57:57.078Z,9.13
2024-05-09T22:00:32.109Z,8.68
2024-05-09T22:03:03.918Z,7.72
2024-05-09T22:05:31.032Z,7.15
2024-05-09T22:07:57.926Z,7.90
2024-05-09T22:10:30.704Z,6.63
2024-05-09T22:13:01.455Z,8.02
2024-05-09T22:15:28.459Z,7.72
2024-05-09T22:17:57.380Z,7.35
2024-05-09T22:20:33.704Z,8.00
2024-05-09T22:23:04.608Z,7.70
2024-05-09T22:25:32.326Z,7.95
2024-05-09T22:28:00.600Z,6.95
2024-05-09T22:30:34.939Z,7.25
2024-05-09T22:33:06.441Z,7.65
2024-05-09T22:35:33.468Z,7.82
2024-05-09T22:38:00.412Z,8.40
2024-05-09T22:42:56.941Z,7.18
2024-05-09T22:45:23.778Z,7.25
2024-05-09T22:47:50.982Z,8.00
2024-05-09T22:50:26.266Z,7.07
2024-05-09T22:52:53.995Z,7.90
2024-05-09T22:55:20.760Z,8.93
2024-05-09T22:57:47.529Z,8.57
2024-05-09T23:00:16.059Z,8.52
2024-05-09T23:02:43.401Z,8.23
2024-05-09T23:05:10.428Z,8.10
2024-05-09T23:07:37.271Z,9.45
2024-05-09T23:10:06.686Z,7.72
2024-05-09T23:12:39.235Z,8.85
2024-05-09T23:15:06.440Z,7.90
2024-05-09T23:17:33.252Z,7.90
2024-05-09T23:20:00.112Z,7.05
2024-05-09T23:22:26.915Z,7.80
2024-05-09T23:24:53.731Z,7.45
2024-05-09T23:27:20.542Z,7.15
2024-05-09T23:29:47.380Z,7.78
2024-05-09T23:32:14.210Z,7.68
2024-05-09T23:34:41.014Z,7.93
2024-05-09T23:37:10.648Z,9.07
2024-05-09T23:39:37.399Z,7.70
2024-05-09T23:42:04.714Z,7.65
2024-05-09T23:44:31.432Z,7.97
2024-05-09T23:46:58.175Z,10.75
2024-05-09T23:49:25.024Z,9.68
2024-05-09T23:51:51.778Z,9.30
2024-05-09T23:54:18.502Z,10.48
2024-05-09T23:56:45.278Z,10.95
2024-05-09T23:59:12.003Z,11.25
